Time;durP1;ratioP1;P1;durP2;ratioP2;P2;SDS_P1;SDS_P2;PMS_P1;PMS_P2;Temp;Humidity;BMP_temperature;BMP_pressure;BME280_temperature;BME280_humidity;BME280_pressure;Samples;Min_cycle;Max_cycle;Signal;HPM_P1;HPM_P2
2022/07/31 00:01:50;;;;;;;2.38;1.40;;;23.30;53.70;;;;;;5009324;28;20029;-78
2022/07/31 00:04:16;;;;;;;2.03;1.42;;;23.30;53.70;;;;;;5030436;28;20036;-78
2022/07/31 00:06:43;;;;;;;2.28;1.23;;;23.30;53.70;;;;;;5029861;28;20177;-78
2022/07/31 00:09:09;;;;;;;2.60;1.20;;;23.30;53.80;;;;;;5020778;28;20124;-78
2022/07/31 00:11:35;;;;;;;2.92;1.30;;;23.20;53.90;;;;;;5020616;28;20040;-78
2022/07/31 00:14:00;;;;;;;1.50;1.17;;;23.20;54.00;;;;;;5032159;28;20021;-78
2022/07/31 00:16:26;;;;;;;1.47;1.17;;;23.20;54.00;;;;;;5004613;28;20258;-78
2022/07/31 00:18:52;;;;;;;1.75;1.27;;;23.20;54.10;;;;;;5031015;28;20381;-78
2022/07/31 00:21:18;;;;;;;1.55;1.27;;;23.10;54.10;;;;;;5017000;28;20468;-78
2022/07/31 00:23:44;;;;;;;2.37;1.23;;;23.10;54.20;;;;;;5023201;28;20029;-78
2022/07/31 00:26:10;;;;;;;1.77;1.40;;;23.10;55.00;;;;;;5024873;28;20702;-78
2022/07/31 00:28:36;;;;;;;1.43;1.17;;;23.10;55.00;;;;;;5025598;28;20215;-77
2022/07/31 00:31:02;;;;;;;2.08;1.20;;;23.10;54.40;;;;;;5013604;28;20025;-78
2022/07/31 00:33:28;;;;;;;3.78;1.35;;;23.10;54.50;;;;;;4996141;28;20409;-78
2022/07/31 00:35:54;;;;;;;1.33;1.10;;;23.10;54.50;;;;;;5028219;28;20229;-78
2022/07/31 00:38:20;;;;;;;2.07;1.30;;;23.00;54.50;;;;;;5024671;28;20036;-78
2022/07/31 00:40:47;;;;;;;3.20;1.20;;;23.00;54.50;;;;;;5012207;28;20033;-78
2022/07/31 00:43:14;;;;;;;1.60;1.30;;;23.00;54.60;;;;;;5024485;28;20052;-78
2022/07/31 00:45:40;;;;;;;1.90;1.20;;;23.00;54.80;;;;;;5031886;28;20028;-78
2022/07/31 00:48:06;;;;;;;1.77;1.20;;;23.00;54.80;;;;;;5009663;28;20597;-79
2022/07/31 00:50:32;;;;;;;1.30;1.00;;;22.90;54.80;;;;;;5028845;28;20070;-78
2022/07/31 00:52:58;;;;;;;1.55;1.20;;;22.90;55.00;;;;;;5028954;28;20154;-78
2022/07/31 00:55:25;;;;;;;1.27;1.00;;;22.90;55.10;;;;;;5022695;28;20029;-79
2022/07/31 00:57:50;;;;;;;2.95;1.00;;;22.90;55.20;;;;;;5026755;28;20059;-79
2022/07/31 01:00:16;;;;;;;1.30;1.00;;;22.90;55.30;;;;;;5033978;28;20051;-78
2022/07/31 01:02:42;;;;;;;1.10;0.87;;;22.80;55.40;;;;;;5019902;28;20103;-78
2022/07/31 01:05:08;;;;;;;0.88;0.77;;;22.80;55.50;;;;;;5010972;28;20357;-78
2022/07/31 01:07:34;;;;;;;1.45;1.00;;;22.80;55.60;;;;;;5027598;28;20021;-78
2022/07/31 01:10:04;;;;;;;1.57;0.90;;;22.80;55.70;;;;;;5010368;28;20052;-79
2022/07/31 01:12:43;;;;;;;1.10;0.82;;;22.80;56.10;;;;;;5032538;28;20021;-78
2022/07/31 01:15:10;;;;;;;1.02;0.82;;;22.80;56.80;;;;;;5035351;28;20025;-79
2022/07/31 01:17:38;;;;;;;1.83;0.97;;;22.70;56.30;;;;;;5024590;28;20039;-78
2022/07/31 01:20:05;;;;;;;1.60;0.80;;;22.70;56.30;;;;;;5012736;28;20494;-79
2022/07/31 01:22:54;;;;;;;1.10;0.90;;;22.70;56.40;;;;;;5037778;28;20064;-79
2022/07/31 01:25:37;;;;;;;2.20;0.90;;;22.70;57.30;;;;;;5035986;28;20025;-78
2022/07/31 01:28:09;;;;;;;1.10;0.90;;;22.60;57.50;;;;;;5032050;28;20028;-78
2022/07/31 01:30:40;;;;;;;1.17;1.00;;;22.60;56.60;;;;;;5038260;28;20120;-78
2022/07/31 01:33:13;;;;;;;1.65;0.82;;;22.50;56.90;;;;;;5032690;28;21201;-78
2022/07/31 01:35:46;;;;;;;2.47;0.80;;;22.50;57.30;;;;;;5024558;28;20033;-78
2022/07/31 01:38:16;;;;;;;0.77;0.75;;;22.50;57.70;;;;;;5030349;28;20017;-79
2022/07/31 01:40:49;;;;;;;0.90;0.80;;;22.40;57.40;;;;;;5021603;28;20385;-78
2022/07/31 01:43:24;;;;;;;1.00;0.80;;;22.40;57.90;;;;;;5034577;28;21171;-79
2022/07/31 01:45:54;;;;;;;1.73;0.73;;;22.40;58.40;;;;;;5023174;28;20040;-78
2022/07/31 01:48:21;;;;;;;1.73;0.90;;;22.30;57.70;;;;;;5042716;28;20107;-78
2022/07/31 01:50:49;;;;;;;1.20;0.98;;;22.30;57.70;;;;;;5013527;28;20108;-78
2022/07/31 01:53:18;;;;;;;0.80;0.80;;;22.30;58.00;;;;;;5023239;28;20022;-79
2022/07/31 01:55:45;;;;;;;1.17;0.80;;;22.30;58.40;;;;;;5025841;28;20028;-78
2022/07/31 01:58:11;;;;;;;1.25;0.75;;;22.30;58.30;;;;;;5021395;28;20029;-79
2022/07/31 02:00:38;;;;;;;1.48;0.90;;;22.30;58.30;;;;;;5033446;28;20040;-78
2022/07/31 02:03:07;;;;;;;1.15;1.00;;;22.20;58.40;;;;;;5036370;28;20434;-78
2022/07/31 02:05:34;;;;;;;2.17;1.00;;;22.20;58.60;;;;;;5036293;28;20033;-79
2022/07/31 02:08:03;;;;;;;1.30;0.77;;;22.20;58.80;;;;;;5019775;28;20396;-78
2022/07/31 02:10:30;;;;;;;1.25;0.77;;;22.20;58.60;;;;;;5023798;28;20385;-78
2022/07/31 02:12:58;;;;;;;1.30;0.80;;;22.20;58.70;;;;;;5020184;28;20729;-78
2022/07/31 02:15:25;;;;;;;3.20;1.10;;;22.20;58.90;;;;;;5035743;28;20063;-78
2022/07/31 02:17:53;;;;;;;1.73;0.93;;;22.20;59.00;;;;;;5018107;28;20108;-78
2022/07/31 02:20:21;;;;;;;1.10;0.90;;;22.20;59.30;;;;;;5034071;28;20381;-79
2022/07/31 02:22:48;;;;;;;1.05;0.90;;;22.10;59.50;;;;;;5009528;28;20382;-78
2022/07/31 02:25:15;;;;;;;0.93;0.80;;;22.10;59.30;;;;;;5032974;28;20028;-78
2022/07/31 02:27:42;;;;;;;1.17;0.80;;;22.10;59.40;;;;;;5027670;28;20029;-78
2022/07/31 02:30:08;;;;;;;1.00;0.90;;;22.10;59.60;;;;;;5029020;28;20389;-79
2022/07/31 02:32:35;;;;;;;1.30;0.70;;;22.00;59.70;;;;;;5044449;28;20070;-79
2022/07/31 02:35:03;;;;;;;0.88;0.88;;;22.00;59.70;;;;;;5031305;28;20235;-78
2022/07/31 02:37:32;;;;;;;0.93;0.75;;;22.00;59.90;;;;;;4999070;28;20028;-79
2022/07/31 02:40:00;;;;;;;0.93;0.70;;;22.00;60.30;;;;;;5025437;28;20068;-78
2022/07/31 02:42:27;;;;;;;0.63;0.60;;;22.00;60.40;;;;;;5032116;28;20029;-79
2022/07/31 02:44:53;;;;;;;2.53;0.90;;;21.90;60.20;;;;;;5029447;28;20045;-78
2022/07/31 02:47:19;;;;;;;1.63;0.75;;;21.90;60.50;;;;;;5031115;28;20037;-78
2022/07/31 02:49:45;;;;;;;0.88;0.65;;;21.90;60.50;;;;;;5019323;28;20021;-78
2022/07/31 02:52:12;;;;;;;1.00;0.80;;;21.90;60.70;;;;;;5034875;28;20025;-79
2022/07/31 02:54:39;;;;;;;1.30;0.80;;;21.90;60.90;;;;;;5012921;28;20029;-80
2022/07/31 02:57:06;;;;;;;2.35;0.80;;;21.90;61.00;;;;;;5035272;28;20017;-78
2022/07/31 02:59:36;;;;;;;0.80;0.80;;;21.90;61.50;;;;;;5022770;28;20037;-79
2022/07/31 03:02:02;;;;;;;0.93;0.73;;;21.80;62.20;;;;;;5031760;28;20111;-78
2022/07/31 03:04:28;;;;;;;0.90;0.70;;;21.80;61.90;;;;;;5031411;28;20021;-80
2022/07/31 03:06:55;;;;;;;0.73;0.60;;;21.80;61.50;;;;;;5036576;28;20025;-79
2022/07/31 03:09:20;;;;;;;1.70;0.80;;;21.80;61.70;;;;;;5015461;28;20304;-79
2022/07/31 03:11:46;;;;;;;0.80;0.70;;;21.80;61.80;;;;;;5019954;28;20398;-78
2022/07/31 03:14:12;;;;;;;1.05;0.80;;;21.80;61.80;;;;;;5008068;28;21616;-79
2022/07/31 03:16:39;;;;;;;1.27;0.80;;;21.80;62.20;;;;;;5029316;28;20100;-79
2022/07/31 03:19:07;;;;;;;1.17;0.80;;;21.80;62.60;;;;;;5034033;28;20292;-78
2022/07/31 03:21:34;;;;;;;0.98;0.80;;;21.80;62.40;;;;;;5022028;28;20071;-79
2022/07/31 03:24:03;;;;;;;1.25;0.80;;;21.80;62.70;;;;;;5009583;28;20937;-78
2022/07/31 03:26:29;;;;;;;2.58;1.00;;;21.80;62.60;;;;;;5042582;28;20722;-78
2022/07/31 03:28:55;;;;;;;1.43;0.70;;;21.70;62.50;;;;;;5020610;28;20097;-79
2022/07/31 03:31:21;;;;;;;1.42;0.90;;;21.80;62.70;;;;;;5025147;28;20120;-78
2022/07/31 03:33:46;;;;;;;1.60;0.70;;;21.70;63.00;;;;;;5030965;28;20047;-79
2022/07/31 03:36:12;;;;;;;1.00;0.70;;;21.70;63.00;;;;;;5032617;28;20036;-79
2022/07/31 03:38:38;;;;;;;1.20;0.80;;;21.70;63.10;;;;;;5031770;28;20064;-78
2022/07/31 03:41:04;;;;;;;1.13;0.80;;;21.70;63.10;;;;;;5002944;28;20029;-80
2022/07/31 03:43:31;;;;;;;1.10;0.80;;;21.70;63.30;;;;;;5031312;28;20091;-79
2022/07/31 03:46:01;;;;;;;1.67;0.87;;;21.70;63.50;;;;;;5021963;28;20207;-79
2022/07/31 03:48:29;;;;;;;1.55;0.70;;;21.70;64.30;;;;;;5022572;28;20031;-78
2022/07/31 03:50:55;;;;;;;1.05;0.77;;;21.70;63.80;;;;;;5035873;28;20024;-78
2022/07/31 03:53:23;;;;;;;1.10;0.73;;;21.70;64.00;;;;;;5023310;28;20027;-79
2022/07/31 03:55:50;;;;;;;0.80;0.70;;;21.70;64.00;;;;;;5018850;28;20261;-78
2022/07/31 03:58:20;;;;;;;1.43;0.77;;;21.60;64.10;;;;;;5017681;28;20060;-79
2022/07/31 04:00:46;;;;;;;0.73;0.63;;;21.60;64.80;;;;;;4994083;28;20204;-79
2022/07/31 04:03:13;;;;;;;1.85;0.73;;;21.60;64.30;;;;;;5032607;28;20029;-79
2022/07/31 04:05:39;;;;;;;1.05;0.80;;;21.50;64.30;;;;;;5014558;28;20129;-79
2022/07/31 04:08:06;;;;;;;1.20;0.90;;;21.50;64.50;;;;;;5034780;28;21103;-79
2022/07/31 04:10:32;;;;;;;1.43;0.70;;;21.50;64.70;;;;;;5023939;28;20100;-80
2022/07/31 04:12:58;;;;;;;0.90;0.70;;;21.50;64.80;;;;;;5019963;28;20236;-79
2022/07/31 04:15:24;;;;;;;1.60;1.00;;;21.40;64.90;;;;;;5033362;28;21503;-79
2022/07/31 04:17:49;;;;;;;1.00;0.80;;;21.40;64.90;;;;;;5019861;28;20283;-80
2022/07/31 04:20:16;;;;;;;2.17;0.80;;;21.40;65.00;;;;;;5031676;28;20505;-80
2022/07/31 04:22:41;;;;;;;1.17;0.90;;;21.40;65.10;;;;;;5030118;28;20032;-80
2022/07/31 04:25:07;;;;;;;0.90;0.80;;;21.30;65.30;;;;;;5032755;28;20504;-79
2022/07/31 04:27:36;;;;;;;1.00;0.90;;;21.30;65.60;;;;;;4999226;28;20025;-80
2022/07/31 04:30:03;;;;;;;1.20;0.70;;;21.30;66.20;;;;;;5023137;28;20040;-79
2022/07/31 04:32:29;;;;;;;1.67;0.80;;;21.30;65.80;;;;;;5016978;28;20029;-80
2022/07/31 04:34:54;;;;;;;1.30;0.77;;;21.30;65.90;;;;;;5021085;28;20087;-78
2022/07/31 04:37:20;;;;;;;1.00;0.90;;;21.30;66.00;;;;;;5032661;28;20071;-79
2022/07/31 04:39:46;;;;;;;0.82;0.80;;;21.30;66.00;;;;;;5027188;28;20256;-79
2022/07/31 04:42:12;;;;;;;0.80;0.63;;;21.30;66.10;;;;;;5023446;28;20040;-79
2022/07/31 04:44:38;;;;;;;1.55;0.80;;;21.30;66.20;;;;;;5010255;28;20135;-79
2022/07/31 04:47:04;;;;;;;2.15;0.80;;;21.30;66.10;;;;;;5020439;28;20076;-79
2022/07/31 04:49:31;;;;;;;1.17;0.90;;;21.30;66.40;;;;;;5031416;28;20032;-79
2022/07/31 04:52:01;;;;;;;2.40;0.97;;;21.30;66.60;;;;;;5045604;28;20501;-78
2022/07/31 04:54:28;;;;;;;1.52;0.90;;;21.30;66.60;;;;;;5031558;28;20128;-80
2022/07/31 04:56:54;;;;;;;1.00;0.80;;;21.30;66.60;;;;;;5027651;28;20148;-78
2022/07/31 04:59:21;;;;;;;1.13;0.90;;;21.30;66.80;;;;;;5013623;28;20032;-79
2022/07/31 05:01:48;;;;;;;0.80;0.70;;;21.30;67.00;;;;;;5021483;28;20021;-79
2022/07/31 05:04:15;;;;;;;1.90;0.80;;;21.40;67.10;;;;;;5016776;28;20228;-79
2022/07/31 05:06:43;;;;;;;1.00;0.90;;;21.40;67.20;;;;;;5031129;28;20090;-79
2022/07/31 05:09:12;;;;;;;1.00;0.90;;;21.40;67.20;;;;;;5014060;28;20064;-80
2022/07/31 05:11:38;;;;;;;1.65;1.00;;;21.40;67.30;;;;;;5021871;28;20031;-78
2022/07/31 05:14:06;;;;;;;1.00;0.77;;;21.40;67.20;;;;;;5012820;28;20068;-79
2022/07/31 05:16:33;;;;;;;1.58;0.98;;;21.40;67.40;;;;;;5005050;28;20029;-79
2022/07/31 05:18:59;;;;;;;1.92;0.90;;;21.40;67.40;;;;;;5024803;28;20033;-79
2022/07/31 05:21:29;;;;;;;2.08;1.10;;;21.40;67.50;;;;;;5030729;28;20351;-80
2022/07/31 05:23:56;;;;;;;3.25;1.02;;;21.40;67.60;;;;;;5013606;28;20126;-79
2022/07/31 05:26:22;;;;;;;1.40;0.80;;;21.50;67.70;;;;;;5028600;28;20234;-79
2022/07/31 05:28:50;;;;;;;1.50;1.00;;;21.50;67.70;;;;;;5031901;28;20086;-79
2022/07/31 05:31:17;;;;;;;1.63;1.00;;;21.50;68.00;;;;;;5027190;28;20222;-80
2022/07/31 05:33:44;;;;;;;1.10;0.80;;;21.50;67.90;;;;;;5006918;28;20048;-78
2022/07/31 05:36:10;;;;;;;1.30;0.85;;;21.50;67.90;;;;;;5015599;28;20037;-78
2022/07/31 05:38:36;;;;;;;1.60;0.90;;;21.60;68.00;;;;;;5004371;28;20052;-79
2022/07/31 05:41:02;;;;;;;1.42;1.05;;;21.60;68.10;;;;;;5031081;28;20553;-79
2022/07/31 05:43:28;;;;;;;1.60;0.90;;;21.60;68.10;;;;;;5030441;28;20285;-79
2022/07/31 05:45:54;;;;;;;1.73;1.10;;;21.60;68.10;;;;;;5008764;28;20130;-79
2022/07/31 05:48:20;;;;;;;1.30;1.00;;;21.60;68.20;;;;;;5017733;28;20241;-79
2022/07/31 05:50:47;;;;;;;1.48;0.90;;;21.60;68.20;;;;;;5023328;28;20733;-80
2022/07/31 05:53:14;;;;;;;1.85;0.98;;;21.70;68.20;;;;;;5017456;28;20588;-78
2022/07/31 05:55:41;;;;;;;2.00;1.10;;;21.70;68.40;;;;;;5014461;28;20048;-79
2022/07/31 05:58:07;;;;;;;1.47;1.03;;;21.70;68.60;;;;;;5031019;28;21137;-78
2022/07/31 06:00:33;;;;;;;1.20;1.02;;;21.80;68.70;;;;;;5026119;28;20032;-79
2022/07/31 06:03:00;;;;;;;2.13;1.10;;;21.80;68.60;;;;;;5024302;28;20092;-79
2022/07/31 06:05:26;;;;;;;1.98;1.20;;;21.80;68.60;;;;;;5024491;28;20372;-80
2022/07/31 06:07:52;;;;;;;1.00;0.90;;;21.90;68.90;;;;;;5035124;28;20028;-80
2022/07/31 06:10:18;;;;;;;1.65;1.00;;;21.90;68.70;;;;;;5015980;28;20509;-79
2022/07/31 06:12:44;;;;;;;1.20;1.00;;;22.00;69.00;;;;;;5033106;28;20029;-78
2022/07/31 06:15:10;;;;;;;1.23;1.10;;;22.00;68.90;;;;;;5006405;28;21827;-79
2022/07/31 06:17:39;;;;;;;1.67;1.27;;;22.00;68.80;;;;;;5034152;28;20434;-79
2022/07/31 06:20:06;;;;;;;1.42;1.10;;;22.10;69.20;;;;;;5017510;28;20033;-79
2022/07/31 06:22:32;;;;;;;1.27;1.13;;;22.10;68.80;;;;;;5005305;28;20117;-79
2022/07/31 06:24:57;;;;;;;2.13;1.20;;;22.20;68.80;;;;;;5027666;28;20119;-78
2022/07/31 06:27:23;;;;;;;2.30;1.10;;;22.20;68.70;;;;;;5008755;28;20303;-79
2022/07/31 06:29:49;;;;;;;2.00;1.37;;;22.30;68.90;;;;;;5034166;28;20044;-79
2022/07/31 06:32:15;;;;;;;2.35;1.33;;;22.30;68.90;;;;;;5009697;28;20722;-80
2022/07/31 06:34:41;;;;;;;2.22;1.30;;;22.30;68.80;;;;;;5030979;28;20827;-79
2022/07/31 06:37:07;;;;;;;2.43;1.60;;;22.30;68.90;;;;;;5020968;28;20029;-79
2022/07/31 06:39:33;;;;;;;1.73;1.30;;;22.40;69.10;;;;;;5032310;28;20497;-79
2022/07/31 06:41:59;;;;;;;1.83;1.30;;;22.50;69.10;;;;;;5015712;28;20771;-80
2022/07/31 06:44:25;;;;;;;1.40;1.30;;;22.50;69.00;;;;;;5020948;28;20041;-79
2022/07/31 06:46:51;;;;;;;1.52;1.30;;;22.50;69.10;;;;;;5031272;28;20052;-79
2022/07/31 06:49:17;;;;;;;2.40;1.50;;;22.60;69.20;;;;;;4999790;28;20127;-79
2022/07/31 06:51:43;;;;;;;2.72;1.50;;;22.60;69.30;;;;;;5034967;28;20042;-80
2022/07/31 06:54:10;;;;;;;2.58;1.40;;;22.70;69.20;;;;;;5007019;28;20013;-78
2022/07/31 06:56:37;;;;;;;2.30;1.38;;;22.80;69.30;;;;;;5019530;28;20027;-80
2022/07/31 06:59:04;;;;;;;2.50;1.60;;;22.80;69.20;;;;;;5021206;28;20021;-79
2022/07/31 07:01:30;;;;;;;2.45;1.63;;;22.90;69.30;;;;;;5036595;28;20032;-79
2022/07/31 07:03:56;;;;;;;2.17;1.40;;;22.90;69.40;;;;;;5013608;28;20028;-81
2022/07/31 07:06:22;;;;;;;3.43;1.80;;;23.00;69.70;;;;;;5041721;28;20572;-79
2022/07/31 07:08:48;;;;;;;2.40;1.65;;;23.10;69.80;;;;;;5022685;28;20089;-79
2022/07/31 07:11:13;;;;;;;2.78;1.58;;;23.20;69.50;;;;;;5031219;28;20035;-79
2022/07/31 07:13:40;;;;;;;2.37;1.70;;;23.30;69.40;;;;;;5019380;28;20055;-78
2022/07/31 07:16:05;;;;;;;3.03;1.90;;;23.40;69.10;;;;;;5034707;28;20033;-79
2022/07/31 07:18:31;;;;;;;3.15;1.80;;;23.40;68.90;;;;;;5026396;28;20082;-79
2022/07/31 07:20:57;;;;;;;2.93;1.90;;;23.50;68.90;;;;;;5032019;28;20043;-78
2022/07/31 07:23:23;;;;;;;2.90;1.75;;;23.50;68.70;;;;;;5020286;28;20628;-79
2022/07/31 07:25:49;;;;;;;2.30;1.50;;;23.60;68.60;;;;;;5033611;28;20389;-79
2022/07/31 07:28:15;;;;;;;2.28;1.65;;;23.60;68.60;;;;;;5014694;28;20888;-78
2022/07/31 07:30:41;;;;;;;2.33;1.50;;;23.70;68.70;;;;;;5033477;28;20036;-79
2022/07/31 07:33:07;;;;;;;2.05;1.65;;;23.70;68.70;;;;;;5036418;28;20489;-79
2022/07/31 07:35:33;;;;;;;3.07;1.63;;;23.80;68.80;;;;;;5012138;28;20028;-79
2022/07/31 07:37:59;;;;;;;2.42;1.70;;;23.90;68.90;;;;;;5024178;28;20029;-79
2022/07/31 07:40:26;;;;;;;2.63;1.60;;;24.00;69.00;;;;;;5033986;28;20416;-79
2022/07/31 07:42:52;;;;;;;2.03;1.60;;;24.10;69.00;;;;;;5012601;28;21454;-78
2022/07/31 07:45:18;;;;;;;2.17;1.90;;;24.20;69.00;;;;;;5020828;28;20528;-80
2022/07/31 07:47:44;;;;;;;2.30;1.70;;;24.40;68.90;;;;;;5037395;28;20022;-78
2022/07/31 07:50:11;;;;;;;2.78;1.83;;;24.50;68.60;;;;;;5012570;28;20029;-79
2022/07/31 07:52:37;;;;;;;3.00;1.90;;;24.50;68.10;;;;;;5013621;28;20445;-78
2022/07/31 07:55:04;;;;;;;2.80;1.87;;;24.60;68.10;;;;;;5023805;28;20075;-78
2022/07/31 07:57:31;;;;;;;2.30;1.70;;;24.70;68.40;;;;;;5018808;28;20033;-79
2022/07/31 08:00:03;;;;;;;2.35;1.67;;;24.80;68.70;;;;;;5015818;28;20028;-79
2022/07/31 08:02:29;;;;;;;2.17;1.73;;;24.90;68.30;;;;;;5023167;28;20045;-78
2022/07/31 08:04:55;;;;;;;2.83;1.97;;;25.00;67.70;;;;;;5038212;28;20067;-79
2022/07/31 08:07:29;;;;;;;2.00;1.80;;;25.00;67.20;;;;;;5001521;28;20025;-80
2022/07/31 08:09:58;;;;;;;2.20;2.00;;;25.00;67.00;;;;;;5021784;28;20265;-79
2022/07/31 08:12:25;;;;;;;1.90;1.60;;;25.10;67.00;;;;;;5025400;28;20052;-78
2022/07/31 08:14:51;;;;;;;1.93;1.63;;;25.20;67.20;;;;;;5026524;28;20021;-77
2022/07/31 08:17:18;;;;;;;2.10;1.63;;;25.30;67.40;;;;;;4998776;28;20033;-77
2022/07/31 08:19:43;;;;;;;2.28;1.90;;;25.40;67.60;;;;;;5028375;28;20203;-79
2022/07/31 08:22:10;;;;;;;3.45;1.98;;;25.60;67.30;;;;;;4993644;28;20560;-79
2022/07/31 08:24:35;;;;;;;3.30;1.90;;;25.70;67.20;;;;;;5027147;28;20120;-79
2022/07/31 08:29:46;;;;;;;3.17;2.00;;;26.10;68.50;;;;;;5026976;28;20017;-78
2022/07/31 08:32:12;;;;;;;3.03;1.77;;;26.30;68.40;;;;;;5009955;28;20537;-79
2022/07/31 08:34:38;;;;;;;3.05;2.00;;;26.60;68.80;;;;;;5031914;28;20392;-77
2022/07/31 08:37:05;;;;;;;3.92;1.90;;;26.90;68.20;;;;;;5008241;28;20025;-79
2022/07/31 08:39:35;;;;;;;2.30;1.70;;;27.20;66.90;;;;;;5030077;28;20333;-79
2022/07/31 08:42:08;;;;;;;2.70;1.80;;;27.40;66.20;;;;;;5011978;28;20037;-79
2022/07/31 08:44:35;;;;;;;2.20;1.80;;;27.70;66.30;;;;;;5026190;28;20118;-79
2022/07/31 08:47:04;;;;;;;2.72;1.80;;;27.90;66.70;;;;;;5020360;28;20619;-79
2022/07/31 08:49:35;;;;;;;3.35;2.10;;;28.20;66.10;;;;;;5030118;28;20025;-78
2022/07/31 08:52:02;;;;;;;2.15;1.60;;;28.40;64.90;;;;;;5003878;28;20486;-79
2022/07/31 08:54:30;;;;;;;2.17;1.80;;;28.60;65.20;;;;;;5029529;28;20109;-78
2022/07/31 08:56:56;;;;;;;2.70;1.90;;;28.80;65.10;;;;;;5003244;28;20113;-78
2022/07/31 08:59:22;;;;;;;1.70;1.60;;;29.10;65.00;;;;;;5028930;28;20021;-78
2022/07/31 09:01:48;;;;;;;2.85;1.70;;;29.30;64.30;;;;;;5010454;28;20032;-78
2022/07/31 09:04:13;;;;;;;2.42;1.70;;;29.50;63.10;;;;;;5006568;28;20409;-79
2022/07/31 09:06:39;;;;;;;2.27;1.87;;;29.60;61.90;;;;;;5026675;28;20029;-79
2022/07/31 09:09:05;;;;;;;2.50;1.80;;;29.60;60.80;;;;;;5001969;28;20142;-80
2022/07/31 09:11:32;;;;;;;3.03;1.83;;;29.70;60.70;;;;;;5017483;28;20288;-79
2022/07/31 09:14:01;;;;;;;2.55;1.88;;;29.70;60.70;;;;;;5035611;28;20040;-78
2022/07/31 09:16:27;;;;;;;2.72;1.88;;;29.80;61.20;;;;;;5031340;28;20074;-79
2022/07/31 09:19:04;;;;;;;2.15;1.80;;;29.90;61.60;;;;;;5010461;28;20040;-79
2022/07/31 09:21:45;;;;;;;3.10;1.70;;;30.10;60.70;;;;;;5027720;28;20424;-78
2022/07/31 09:24:27;;;;;;;1.90;1.60;;;30.30;59.40;;;;;;5005932;28;20470;-78
2022/07/31 09:27:07;;;;;;;2.08;1.65;;;30.50;58.90;;;;;;5015317;28;20160;-79
2022/07/31 09:29:40;;;;;;;2.30;1.90;;;30.50;58.30;;;;;;5022537;28;20773;-79
2022/07/31 09:32:08;;;;;;;1.83;1.70;;;30.50;58.10;;;;;;5045539;28;20071;-79
2022/07/31 09:34:34;;;;;;;2.43;1.80;;;30.60;58.50;;;;;;5012524;28;20707;-79
2022/07/31 09:37:10;;;;;;;2.58;1.80;;;30.60;58.00;;;;;;5034050;28;20021;-79
2022/07/31 09:39:37;;;;;;;2.25;1.80;;;30.60;57.20;;;;;;5009360;28;20017;-79
2022/07/31 09:42:04;;;;;;;2.50;1.90;;;30.50;57.10;;;;;;5020788;28;20041;-78
2022/07/31 09:44:45;;;;;;;2.83;1.80;;;30.50;57.30;;;;;;5010024;28;20124;-78
2022/07/31 09:47:28;;;;;;;2.33;1.80;;;30.60;56.70;;;;;;5017228;28;20121;-78
2022/07/31 09:49:57;;;;;;;2.63;2.10;;;30.50;55.30;;;;;;5010059;28;20279;-78
2022/07/31 09:52:23;;;;;;;2.40;1.80;;;30.50;56.30;;;;;;5043212;28;20063;-79
2022/07/31 09:54:59;;;;;;;2.30;2.00;;;30.40;56.70;;;;;;5011715;28;20698;-78
2022/07/31 09:57:25;;;;;;;2.45;2.10;;;30.40;57.10;;;;;;5016550;28;20393;-79
2022/07/31 09:59:51;;;;;;;2.90;1.83;;;30.50;56.80;;;;;;5029682;28;20029;-79
2022/07/31 10:02:18;;;;;;;2.80;1.63;;;30.40;56.20;;;;;;5010930;28;20035;-78
2022/07/31 10:04:46;;;;;;;2.50;1.85;;;30.40;55.80;;;;;;5018542;28;20388;-78
2022/07/31 10:07:13;;;;;;;2.20;1.80;;;30.30;55.50;;;;;;5024545;28;20036;-78
2022/07/31 10:09:40;;;;;;;3.15;2.00;;;30.20;55.40;;;;;;5025428;28;20040;-79
2022/07/31 10:12:08;;;;;;;2.90;2.10;;;30.20;56.00;;;;;;5014441;28;20539;-78
2022/07/31 10:14:39;;;;;;;2.43;1.80;;;30.10;56.00;;;;;;5031705;28;20056;-78
2022/07/31 10:17:07;;;;;;;2.38;1.90;;;30.10;55.80;;;;;;5020995;28;20955;-79
2022/07/31 10:19:39;;;;;;;2.92;1.90;;;30.10;55.80;;;;;;5000790;28;20123;-79
2022/07/31 10:22:05;;;;;;;2.38;1.77;;;30.10;55.30;;;;;;5030250;28;20129;-79
2022/07/31 10:24:33;;;;;;;2.03;1.83;;;30.00;55.00;;;;;;5013426;28;20254;-79
2022/07/31 10:26:59;;;;;;;3.60;2.00;;;29.90;54.90;;;;;;5014207;28;20051;-79
2022/07/31 10:29:26;;;;;;;2.28;1.70;;;29.80;54.90;;;;;;5038361;28;20049;-79
2022/07/31 10:31:52;;;;;;;4.13;2.13;;;29.70;55.00;;;;;;5039355;28;20029;-79
2022/07/31 10:34:19;;;;;;;2.10;1.77;;;29.60;54.80;;;;;;4999318;28;20065;-79
2022/07/31 10:36:47;;;;;;;2.55;1.98;;;29.50;54.90;;;;;;5021195;28;20125;-79
2022/07/31 10:39:27;;;;;;;2.37;2.00;;;29.40;54.90;;;;;;5024008;28;20486;-78
2022/07/31 10:41:53;;;;;;;2.70;2.10;;;29.30;55.00;;;;;;5011061;28;20032;-80
2022/07/31 10:44:34;;;;;;;2.90;1.85;;;29.20;56.00;;;;;;5018004;28;20049;-78
2022/07/31 10:47:12;;;;;;;2.10;1.83;;;29.20;55.50;;;;;;5031280;28;20032;-79
2022/07/31 10:49:47;;;;;;;3.00;1.90;;;29.20;56.30;;;;;;5016654;28;20967;-80
2022/07/31 10:52:14;;;;;;;2.90;2.07;;;29.20;55.90;;;;;;5035583;28;20053;-78
2022/07/31 10:54:45;;;;;;;3.35;2.13;;;29.20;56.10;;;;;;5011923;28;20025;-80
2022/07/31 10:57:23;;;;;;;2.40;1.80;;;29.30;56.70;;;;;;5005221;28;20028;-79
2022/07/31 10:59:49;;;;;;;3.13;2.00;;;29.40;56.10;;;;;;5024450;28;20025;-79
2022/07/31 11:02:26;;;;;;;2.13;1.60;;;29.50;56.80;;;;;;5030156;28;20024;-79
2022/07/31 11:04:52;;;;;;;3.03;1.53;;;29.60;57.20;;;;;;5022843;28;20047;-80
2022/07/31 11:07:20;;;;;;;2.38;1.95;;;29.80;57.00;;;;;;5015023;28;20033;-79
2022/07/31 11:09:45;;;;;;;2.40;1.90;;;30.00;57.40;;;;;;5028510;28;20021;-80
2022/07/31 11:12:18;;;;;;;5.43;1.90;;;30.30;57.30;;;;;;5000401;28;20060;-80
2022/07/31 11:14:44;;;;;;;2.22;1.90;;;30.60;56.60;;;;;;5023011;28;20052;-79
2022/07/31 11:17:10;;;;;;;1.90;1.60;;;30.90;56.80;;;;;;5033143;28;20075;-79
2022/07/31 11:19:38;;;;;;;2.60;1.60;;;31.10;56.20;;;;;;4993319;28;20485;-79
2022/07/31 11:22:16;;;;;;;2.15;1.63;;;31.20;55.10;;;;;;5013593;28;20234;-80
2022/07/31 11:24:55;;;;;;;1.88;1.60;;;31.20;54.00;;;;;;5029609;28;20040;-79
2022/07/31 11:27:31;;;;;;;2.20;1.60;;;31.20;53.70;;;;;;5016218;28;20766;-79
2022/07/31 11:30:07;;;;;;;2.77;1.73;;;31.10;53.30;;;;;;5019368;28;20743;-79
2022/07/31 11:32:33;;;;;;;2.75;1.67;;;31.00;53.20;;;;;;5036309;28;20028;-80
2022/07/31 11:34:59;;;;;;;2.35;1.70;;;30.80;53.20;;;;;;5018236;28;20029;-79
2022/07/31 11:37:30;;;;;;;3.53;1.90;;;30.70;53.20;;;;;;5019478;28;20008;-79
2022/07/31 11:39:57;;;;;;;1.97;1.40;;;30.60;53.20;;;;;;5025869;28;20474;-79
2022/07/31 11:42:26;;;;;;;2.13;1.60;;;30.40;53.20;;;;;;5016761;28;20102;-78
2022/07/31 11:44:53;;;;;;;1.92;1.40;;;30.30;53.40;;;;;;5018270;28;20235;-80
2022/07/31 11:47:19;;;;;;;1.50;1.33;;;30.20;53.70;;;;;;5020908;28;20033;-79
2022/07/31 11:49:44;;;;;;;2.13;1.60;;;30.10;54.10;;;;;;5008074;28;20513;-79
2022/07/31 11:52:11;;;;;;;1.80;1.50;;;30.00;54.40;;;;;;5035210;28;20095;-79
2022/07/31 11:54:37;;;;;;;2.20;1.70;;;30.10;54.70;;;;;;5018467;28;20057;-79
2022/07/31 11:57:04;;;;;;;1.70;1.60;;;30.10;54.90;;;;;;5028539;28;20581;-78
2022/07/31 11:59:35;;;;;;;1.70;1.50;;;30.20;55.30;;;;;;5008137;28;20497;-79
2022/07/31 12:02:08;;;;;;;1.50;1.40;;;30.40;55.80;;;;;;5009398;28;20577;-79
2022/07/31 12:04:35;;;;;;;1.50;1.40;;;30.70;56.00;;;;;;5029201;28;20083;-79
2022/07/31 12:07:07;;;;;;;2.45;1.52;;;30.90;55.50;;;;;;5018966;28;20028;-80
2022/07/31 12:09:35;;;;;;;1.45;1.30;;;31.10;54.60;;;;;;5009161;28;20030;-80
2022/07/31 12:12:05;;;;;;;1.50;1.40;;;31.20;54.40;;;;;;5021930;28;20032;-80
2022/07/31 12:14:37;;;;;;;1.53;1.20;;;31.30;53.40;;;;;;5001507;28;20063;-80
2022/07/31 12:17:05;;;;;;;1.83;1.10;;;31.30;53.20;;;;;;4992345;28;20126;-79
2022/07/31 12:19:34;;;;;;;1.25;1.10;;;31.20;52.70;;;;;;5017260;28;20284;-80
2022/07/31 12:22:00;;;;;;;1.63;1.20;;;31.10;52.60;;;;;;5029809;28;20141;-79
2022/07/31 12:24:26;;;;;;;1.52;1.15;;;31.00;52.70;;;;;;5010865;28;20540;-79
2022/07/31 12:26:58;;;;;;;1.20;1.10;;;31.00;53.10;;;;;;5029967;28;20025;-79
2022/07/31 12:29:32;;;;;;;2.65;1.27;;;30.90;53.10;;;;;;5000254;28;20076;-80
2022/07/31 12:31:58;;;;;;;1.73;1.13;;;30.90;52.90;;;;;;5014317;28;20071;-79
2022/07/31 12:34:38;;;;;;;1.92;1.17;;;30.80;53.30;;;;;;5019824;28;20337;-78
2022/07/31 12:37:13;;;;;;;1.95;1.40;;;30.80;53.40;;;;;;5017292;28;20309;-79
2022/07/31 12:39:49;;;;;;;1.60;1.30;;;30.80;53.30;;;;;;5014178;28;20037;-79
2022/07/31 12:42:34;;;;;;;1.50;1.20;;;30.80;53.40;;;;;;5026664;28;20037;-79
2022/07/31 12:45:01;;;;;;;1.77;1.20;;;30.80;53.40;;;;;;5003448;28;20041;-80
2022/07/31 12:47:32;;;;;;;1.35;1.25;;;30.80;53.30;;;;;;5005466;28;20405;-79
2022/07/31 12:49:59;;;;;;;2.78;1.70;;;30.80;53.00;;;;;;5016188;28;20029;-80
2022/07/31 12:52:29;;;;;;;2.97;1.80;;;30.80;52.90;;;;;;5000755;28;20029;-80
2022/07/31 12:54:55;;;;;;;2.22;1.40;;;30.80;52.60;;;;;;5027410;28;20040;-80